sensor_id;sensor_type;location;lat;lon;timestamp;temperature;humidity
11091;DHT22;5599;52.210;21.046;2023-02-05T00:02:02;-2.90;1.00
11091;DHT22;5599;52.210;21.046;2023-02-05T00:04:34;-2.90;1.00
11091;DHT22;5599;52.210;21.046;2023-02-05T00:07:05;-2.90;99.90
11091;DHT22;5599;52.210;21.046;2023-02-05T00:09:35;-2.90;1.00
11091;DHT22;5599;52.210;21.046;2023-02-05T00:12:07;-2.90;1.00
11091;DHT22;5599;52.210;21.046;2023-02-05T00:14:38;-2.80;1.00
11091;DHT22;5599;52.210;21.046;2023-02-05T00:17:07;-2.80;1.00
11091;DHT22;5599;52.210;21.046;2023-02-05T00:19:37;-2.70;1.00
11091;DHT22;5599;52.210;21.046;2023-02-05T00:22:06;-2.70;99.90
11091;DHT22;5599;52.210;21.046;2023-02-05T00:24:36;-2.70;99.90
11091;DHT22;5599;52.210;21.046;2023-02-05T00:27:06;-2.70;99.90
11091;DHT22;5599;52.210;21.046;2023-02-05T00:29:39;-2.60;13.60
11091;DHT22;5599;52.210;21.046;2023-02-05T00:32:08;-2.60;1.00
11091;DHT22;5599;52.210;21.046;2023-02-05T00:34:38;-2.60;1.00
11091;DHT22;5599;52.210;21.046;2023-02-05T00:37:07;-2.60;1.00
11091;DHT22;5599;52.210;21.046;2023-02-05T00:39:36;-2.50;99.90
11091;DHT22;5599;52.210;21.046;2023-02-05T00:42:06;-2.50;94.90
11091;DHT22;5599;52.210;21.046;2023-02-05T00:44:35;-2.40;1.00
11091;DHT22;5599;52.210;21.046;2023-02-05T00:47:06;-2.40;99.90
11091;DHT22;5599;52.210;21.046;2023-02-05T00:49:35;-2.40;1.00
11091;DHT22;5599;52.210;21.046;2023-02-05T00:52:04;-2.30;99.90
11091;DHT22;5599;52.210;21.046;2023-02-05T00:54:34;-2.30;11.20
11091;DHT22;5599;52.210;21.046;2023-02-05T00:57:03;-2.20;1.00
11091;DHT22;5599;52.210;21.046;2023-02-05T00:59:33;-2.30;99.90
11091;DHT22;5599;52.210;21.046;2023-02-05T01:02:02;-2.20;99.90
11091;DHT22;5599;52.210;21.046;2023-02-05T01:04:33;-2.10;99.90
11091;DHT22;5599;52.210;21.046;2023-02-05T01:07:02;-2.10;1.00
11091;DHT22;5599;52.210;21.046;2023-02-05T01:09:31;-2.00;4.00
11091;DHT22;5599;52.210;21.046;2023-02-05T01:12:00;-2.00;1.00
11091;DHT22;5599;52.210;21.046;2023-02-05T01:14:30;-2.00;1.00
11091;DHT22;5599;52.210;21.046;2023-02-05T01:16:59;-2.00;1.00
11091;DHT22;5599;52.210;21.046;2023-02-05T01:19:29;-2.10;99.90
11091;DHT22;5599;52.210;21.046;2023-02-05T01:21:59;-2.20;99.90
11091;DHT22;5599;52.210;21.046;2023-02-05T01:24:29;-2.10;1.00
11091;DHT22;5599;52.210;21.046;2023-02-05T01:26:58;-2.20;1.00
11091;DHT22;5599;52.210;21.046;2023-02-05T01:29:29;-2.10;1.00
11091;DHT22;5599;52.210;21.046;2023-02-05T01:31:58;-2.10;71.90
11091;DHT22;5599;52.210;21.046;2023-02-05T01:34:27;-2.10;1.00
11091;DHT22;5599;52.210;21.046;2023-02-05T01:36:58;-2.00;1.00
11091;DHT22;5599;52.210;21.046;2023-02-05T01:39:28;-1.90;99.90
11091;DHT22;5599;52.210;21.046;2023-02-05T01:41:57;-1.90;1.00
11091;DHT22;5599;52.210;21.046;2023-02-05T01:44:29;-1.80;1.00
11091;DHT22;5599;52.210;21.046;2023-02-05T01:46:58;-1.80;99.90
11091;DHT22;5599;52.210;21.046;2023-02-05T01:49:31;-1.70;99.90
11091;DHT22;5599;52.210;21.046;2023-02-05T01:52:08;-1.60;58.90
11091;DHT22;5599;52.210;21.046;2023-02-05T01:54:41;-1.70;96.90
11091;DHT22;5599;52.210;21.046;2023-02-05T01:57:16;-1.70;13.20
11091;DHT22;5599;52.210;21.046;2023-02-05T01:59:48;-1.60;1.00
11091;DHT22;5599;52.210;21.046;2023-02-05T02:02:17;-1.60;1.00
11091;DHT22;5599;52.210;21.046;2023-02-05T02:04:49;-1.60;1.00
11091;DHT22;5599;52.210;21.046;2023-02-05T02:07:23;-1.50;1.00
11091;DHT22;5599;52.210;21.046;2023-02-05T02:09:53;-1.40;1.00
11091;DHT22;5599;52.210;21.046;2023-02-05T02:12:26;-1.40;99.90
11091;DHT22;5599;52.210;21.046;2023-02-05T02:14:59;-1.50;29.30
11091;DHT22;5599;52.210;21.046;2023-02-05T02:17:31;-1.50;99.90
11091;DHT22;5599;52.210;21.046;2023-02-05T02:20:07;-1.50;99.90
11091;DHT22;5599;52.210;21.046;2023-02-05T02:22:57;-1.60;99.90
11091;DHT22;5599;52.210;21.046;2023-02-05T02:25:47;-1.50;1.00
11091;DHT22;5599;52.210;21.046;2023-02-05T02:28:24;-1.60;85.50
11091;DHT22;5599;52.210;21.046;2023-02-05T02:31:00;-1.50;1.00
11091;DHT22;5599;52.210;21.046;2023-02-05T02:33:35;-1.40;99.90
11091;DHT22;5599;52.210;21.046;2023-02-05T02:36:13;-1.40;99.90
11091;DHT22;5599;52.210;21.046;2023-02-05T02:38:48;-1.40;1.00
11091;DHT22;5599;52.210;21.046;2023-02-05T02:41:24;-1.50;1.00
11091;DHT22;5599;52.210;21.046;2023-02-05T02:43:57;-1.40;75.80
11091;DHT22;5599;52.210;21.046;2023-02-05T02:46:30;-1.40;1.00
11091;DHT22;5599;52.210;21.046;2023-02-05T02:49:07;-1.40;1.00
11091;DHT22;5599;52.210;21.046;2023-02-05T02:51:39;-1.40;99.90
11091;DHT22;5599;52.210;21.046;2023-02-05T02:54:13;-1.50;1.00
11091;DHT22;5599;52.210;21.046;2023-02-05T02:56:44;-1.40;1.00
11091;DHT22;5599;52.210;21.046;2023-02-05T02:59:17;-1.30;1.00
11091;DHT22;5599;52.210;21.046;2023-02-05T03:01:53;-1.20;1.00
11091;DHT22;5599;52.210;21.046;2023-02-05T03:04:25;-1.40;99.90
11091;DHT22;5599;52.210;21.046;2023-02-05T03:07:05;-1.40;99.90
11091;DHT22;5599;52.210;21.046;2023-02-05T03:09:39;-1.40;99.90
11091;DHT22;5599;52.210;21.046;2023-02-05T03:12:11;-1.50;99.90
11091;DHT22;5599;52.210;21.046;2023-02-05T03:14:42;-1.50;1.00
11091;DHT22;5599;52.210;21.046;2023-02-05T03:17:12;-1.50;1.00
11091;DHT22;5599;52.210;21.046;2023-02-05T03:19:51;-1.60;1.00
11091;DHT22;5599;52.210;21.046;2023-02-05T03:22:21;-1.50;1.00
11091;DHT22;5599;52.210;21.046;2023-02-05T03:24:51;-1.60;1.00
11091;DHT22;5599;52.210;21.046;2023-02-05T03:27:21;-1.60;1.00
11091;DHT22;5599;52.210;21.046;2023-02-05T03:29:53;-1.50;43.00
11091;DHT22;5599;52.210;21.046;2023-02-05T03:32:33;-1.60;1.00
11091;DHT22;5599;52.210;21.046;2023-02-05T03:35:19;-1.60;1.00
11091;DHT22;5599;52.210;21.046;2023-02-05T03:38:03;-1.50;5.30
11091;DHT22;5599;52.210;21.046;2023-02-05T03:40:41;-1.70;9.80
11091;DHT22;5599;52.210;21.046;2023-02-05T03:43:19;-1.60;54.10
11091;DHT22;5599;52.210;21.046;2023-02-05T03:46:03;-1.60;99.20
11091;DHT22;5599;52.210;21.046;2023-02-05T03:48:46;-1.50;1.00
11091;DHT22;5599;52.210;21.046;2023-02-05T03:51:31;-1.60;99.90
11091;DHT22;5599;52.210;21.046;2023-02-05T03:54:10;-1.50;99.90
11091;DHT22;5599;52.210;21.046;2023-02-05T03:56:50;-1.50;1.00
11091;DHT22;5599;52.210;21.046;2023-02-05T03:59:22;-1.50;1.00
11091;DHT22;5599;52.210;21.046;2023-02-05T04:01:54;-1.50;99.90
11091;DHT22;5599;52.210;21.046;2023-02-05T04:04:24;-1.50;1.00
11091;DHT22;5599;52.210;21.046;2023-02-05T04:06:55;-1.50;99.90
11091;DHT22;5599;52.210;21.046;2023-02-05T04:09:25;-1.50;99.90
11091;DHT22;5599;52.210;21.046;2023-02-05T04:11:55;-1.50;99.90
11091;DHT22;5599;52.210;21.046;2023-02-05T04:14:25;-1.50;99.90
11091;DHT22;5599;52.210;21.046;2023-02-05T04:16:56;-1.60;99.90
11091;DHT22;5599;52.210;21.046;2023-02-05T04:19:27;-1.70;99.90
11091;DHT22;5599;52.210;21.046;2023-02-05T04:21:59;-1.60;1.00
11091;DHT22;5599;52.210;21.046;2023-02-05T04:24:32;-1.50;1.00
11091;DHT22;5599;52.210;21.046;2023-02-05T04:27:02;-1.50;1.00
11091;DHT22;5599;52.210;21.046;2023-02-05T04:29:31;-1.50;99.90
11091;DHT22;5599;52.210;21.046;2023-02-05T04:32:02;-1.50;99.90
11091;DHT22;5599;52.210;21.046;2023-02-05T04:34:31;-1.60;99.90
11091;DHT22;5599;52.210;21.046;2023-02-05T04:37:01;-1.70;99.90
11091;DHT22;5599;52.210;21.046;2023-02-05T04:39:30;-1.70;1.00
11091;DHT22;5599;52.210;21.046;2023-02-05T04:42:00;-1.70;1.00
11091;DHT22;5599;52.210;21.046;2023-02-05T04:44:29;-1.70;1.00
11091;DHT22;5599;52.210;21.046;2023-02-05T04:46:58;-1.60;1.00
11091;DHT22;5599;52.210;21.046;2023-02-05T04:49:31;-1.60;1.00
11091;DHT22;5599;52.210;21.046;2023-02-05T04:52:00;-1.50;1.00
11091;DHT22;5599;52.210;21.046;2023-02-05T04:54:29;-1.50;1.00
11091;DHT22;5599;52.210;21.046;2023-02-05T04:56:59;-1.50;1.00
11091;DHT22;5599;52.210;21.046;2023-02-05T04:59:28;-1.50;1.00
11091;DHT22;5599;52.210;21.046;2023-02-05T05:01:58;-1.60;1.00
11091;DHT22;5599;52.210;21.046;2023-02-05T05:04:29;-1.60;1.00
11091;DHT22;5599;52.210;21.046;2023-02-05T05:06:58;-1.60;70.10
11091;DHT22;5599;52.210;21.046;2023-02-05T05:09:27;-1.50;60.80
11091;DHT22;5599;52.210;21.046;2023-02-05T05:11:57;-1.60;1.00
11091;DHT22;5599;52.210;21.046;2023-02-05T05:14:27;-1.60;1.00
11091;DHT22;5599;52.210;21.046;2023-02-05T05:16:56;-1.60;1.00
11091;DHT22;5599;52.210;21.046;2023-02-05T05:19:25;-1.60;1.00
11091;DHT22;5599;52.210;21.046;2023-02-05T05:21:56;-1.70;1.00
11091;DHT22;5599;52.210;21.046;2023-02-05T05:24:25;-1.60;99.90
11091;DHT22;5599;52.210;21.046;2023-02-05T05:26:55;-1.50;99.90
11091;DHT22;5599;52.210;21.046;2023-02-05T05:29:24;-1.50;99.90
11091;DHT22;5599;52.210;21.046;2023-02-05T05:31:53;-1.40;42.00
11091;DHT22;5599;52.210;21.046;2023-02-05T05:34:22;-1.50;1.00
11091;DHT22;5599;52.210;21.046;2023-02-05T05:36:52;-1.40;1.00
11091;DHT22;5599;52.210;21.046;2023-02-05T05:39:23;-1.40;99.90
11091;DHT22;5599;52.210;21.046;2023-02-05T05:42:10;-1.30;99.90
11091;DHT22;5599;52.210;21.046;2023-02-05T05:44:57;-1.40;1.00
11091;DHT22;5599;52.210;21.046;2023-02-05T05:47:26;-1.50;99.90
11091;DHT22;5599;52.210;21.046;2023-02-05T05:49:56;-1.50;99.90
11091;DHT22;5599;52.210;21.046;2023-02-05T05:52:25;-1.50;99.90
11091;DHT22;5599;52.210;21.046;2023-02-05T05:54:57;-1.50;1.00
11091;DHT22;5599;52.210;21.046;2023-02-05T05:57:27;-1.50;30.70
11091;DHT22;5599;52.210;21.046;2023-02-05T05:59:56;-1.60;99.90
11091;DHT22;5599;52.210;21.046;2023-02-05T06:02:26;-1.50;1.00
11091;DHT22;5599;52.210;21.046;2023-02-05T06:04:55;-1.60;1.00
11091;DHT22;5599;52.210;21.046;2023-02-05T06:07:25;-1.70;1.00
11091;DHT22;5599;52.210;21.046;2023-02-05T06:09:54;-1.80;38.10
11091;DHT22;5599;52.210;21.046;2023-02-05T06:12:25;-1.80;99.90
11091;DHT22;5599;52.210;21.046;2023-02-05T06:14:54;-1.80;99.90
11091;DHT22;5599;52.210;21.046;2023-02-05T06:17:23;-1.80;99.90
11091;DHT22;5599;52.210;21.046;2023-02-05T06:19:52;-1.90;99.90
11091;DHT22;5599;52.210;21.046;2023-02-05T06:22:22;-1.80;1.00
11091;DHT22;5599;52.210;21.046;2023-02-05T06:24:51;-1.70;1.00
11091;DHT22;5599;52.210;21.046;2023-02-05T06:27:20;-1.70;99.90
11091;DHT22;5599;52.210;21.046;2023-02-05T06:29:51;-1.90;1.00
11091;DHT22;5599;52.210;21.046;2023-02-05T06:32:20;-1.80;1.00
11091;DHT22;5599;52.210;21.046;2023-02-05T06:34:53;-1.90;99.90
11091;DHT22;5599;52.210;21.046;2023-02-05T06:37:22;-1.80;99.90
11091;DHT22;5599;52.210;21.046;2023-02-05T06:40:12;-1.70;1.00
11091;DHT22;5599;52.210;21.046;2023-02-05T06:42:42;-1.60;99.90
11091;DHT22;5599;52.210;21.046;2023-02-05T06:45:13;-1.60;99.90
11091;DHT22;5599;52.210;21.046;2023-02-05T06:47:42;-1.60;34.60
11091;DHT22;5599;52.210;21.046;2023-02-05T06:50:11;-1.60;1.00
11091;DHT22;5599;52.210;21.046;2023-02-05T06:52:41;-1.50;1.00
11091;DHT22;5599;52.210;21.046;2023-02-05T06:55:10;-1.50;1.00
11091;DHT22;5599;52.210;21.046;2023-02-05T06:57:39;-1.50;6.80
11091;DHT22;5599;52.210;21.046;2023-02-05T07:00:12;-1.50;1.00
11091;DHT22;5599;52.210;21.046;2023-02-05T07:02:42;-1.40;1.00
11091;DHT22;5599;52.210;21.046;2023-02-05T07:05:11;-1.30;99.90
11091;DHT22;5599;52.210;21.046;2023-02-05T07:07:40;-1.40;30.50
11091;DHT22;5599;52.210;21.046;2023-02-05T07:10:09;-1.50;1.00
11091;DHT22;5599;52.210;21.046;2023-02-05T07:12:39;-1.50;1.00
11091;DHT22;5599;52.210;21.046;2023-02-05T07:15:08;-1.60;1.00
11091;DHT22;5599;52.210;21.046;2023-02-05T07:17:39;-1.50;14.10
11091;DHT22;5599;52.210;21.046;2023-02-05T07:20:09;-1.60;1.00
11091;DHT22;5599;52.210;21.046;2023-02-05T07:22:39;-1.60;1.00
11091;DHT22;5599;52.210;21.046;2023-02-05T07:25:08;-1.60;1.00
11091;DHT22;5599;52.210;21.046;2023-02-05T07:27:37;-1.70;1.00
11091;DHT22;5599;52.210;21.046;2023-02-05T07:30:08;-1.70;99.90
11091;DHT22;5599;52.210;21.046;2023-02-05T07:32:39;-1.60;99.90
11091;DHT22;5599;52.210;21.046;2023-02-05T07:35:08;-1.60;1.00
11091;DHT22;5599;52.210;21.046;2023-02-05T07:37:38;-1.60;99.90
11091;DHT22;5599;52.210;21.046;2023-02-05T07:40:08;-1.60;99.90
11091;DHT22;5599;52.210;21.046;2023-02-05T07:42:37;-1.60;99.90
11091;DHT22;5599;52.210;21.046;2023-02-05T07:45:08;-1.60;99.90
11091;DHT22;5599;52.210;21.046;2023-02-05T07:47:39;-1.60;99.90
11091;DHT22;5599;52.210;21.046;2023-02-05T07:50:09;-1.50;99.90
11091;DHT22;5599;52.210;21.046;2023-02-05T07:52:39;-1.30;12.20
11091;DHT22;5599;52.210;21.046;2023-02-05T07:55:08;-1.20;1.00
11091;DHT22;5599;52.210;21.046;2023-02-05T07:57:37;-1.10;1.00
11091;DHT22;5599;52.210;21.046;2023-02-05T08:00:08;-1.00;99.90
11091;DHT22;5599;52.210;21.046;2023-02-05T08:02:42;-0.90;99.90
11091;DHT22;5599;52.210;21.046;2023-02-05T08:05:12;-0.90;99.90
11091;DHT22;5599;52.210;21.046;2023-02-05T08:07:42;-0.80;91.10
11091;DHT22;5599;52.210;21.046;2023-02-05T08:10:13;-0.70;11.00
11091;DHT22;5599;52.210;21.046;2023-02-05T08:12:43;-0.60;1.00
11091;DHT22;5599;52.210;21.046;2023-02-05T08:15:12;-0.30;1.00
11091;DHT22;5599;52.210;21.046;2023-02-05T08:17:43;-0.20;99.90
11091;DHT22;5599;52.210;21.046;2023-02-05T08:20:13;-0.10;99.90
11091;DHT22;5599;52.210;21.046;2023-02-05T08:22:43;0.20;99.90
11091;DHT22;5599;52.210;21.046;2023-02-05T08:25:13;0.50;1.00
11091;DHT22;5599;52.210;21.046;2023-02-05T08:27:43;0.90;1.00
11091;DHT22;5599;52.210;21.046;2023-02-05T08:30:16;1.20;99.90
11091;DHT22;5599;52.210;21.046;2023-02-05T08:32:50;1.60;1.00
11091;DHT22;5599;52.210;21.046;2023-02-05T08:35:19;2.30;24.90
11091;DHT22;5599;52.210;21.046;2023-02-05T08:37:49;2.80;1.00
11091;DHT22;5599;52.210;21.046;2023-02-05T08:40:19;3.30;1.00
11091;DHT22;5599;52.210;21.046;2023-02-05T08:42:49;3.50;99.90
11091;DHT22;5599;52.210;21.046;2023-02-05T08:45:24;3.50;99.90
11091;DHT22;5599;52.210;21.046;2023-02-05T08:47:56;3.40;99.90
11091;DHT22;5599;52.210;21.046;2023-02-05T08:50:27;3.00;99.90
11091;DHT22;5599;52.210;21.046;2023-02-05T08:52:57;2.70;99.90
11091;DHT22;5599;52.210;21.046;2023-02-05T08:55:28;1.90;99.90
11091;DHT22;5599;52.210;21.046;2023-02-05T08:58:01;1.60;1.00
11091;DHT22;5599;52.210;21.046;2023-02-05T09:00:31;1.30;1.00
11091;DHT22;5599;52.210;21.046;2023-02-05T09:03:06;1.40;1.00
11091;DHT22;5599;52.210;21.046;2023-02-05T09:05:37;1.20;1.00
11091;DHT22;5599;52.210;21.046;2023-02-05T09:08:07;1.00;1.00
11091;DHT22;5599;52.210;21.046;2023-02-05T09:10:36;1.00;11.90
11091;DHT22;5599;52.210;21.046;2023-02-05T09:13:07;1.10;99.90
11091;DHT22;5599;52.210;21.046;2023-02-05T09:15:40;1.30;43.60
11091;DHT22;5599;52.210;21.046;2023-02-05T09:18:12;1.60;40.40
11091;DHT22;5599;52.210;21.046;2023-02-05T09:20:43;2.10;1.00
11091;DHT22;5599;52.210;21.046;2023-02-05T09:23:14;2.40;1.00
11091;DHT22;5599;52.210;21.046;2023-02-05T09:25:45;2.50;1.00
11091;DHT22;5599;52.210;21.046;2023-02-05T09:28:15;2.50;99.90
11091;DHT22;5599;52.210;21.046;2023-02-05T09:30:45;2.40;99.90
11091;DHT22;5599;52.210;21.046;2023-02-05T09:33:17;1.90;99.90
11091;DHT22;5599;52.210;21.046;2023-02-05T09:35:49;1.70;99.90
11091;DHT22;5599;52.210;21.046;2023-02-05T09:38:21;1.70;1.00
11091;DHT22;5599;52.210;21.046;2023-02-05T09:40:56;1.50;1.00
11091;DHT22;5599;52.210;21.046;2023-02-05T09:43:44;1.10;99.90
11091;DHT22;5599;52.210;21.046;2023-02-05T09:46:24;0.70;99.90
11091;DHT22;5599;52.210;21.046;2023-02-05T09:49:01;0.60;99.90
11091;DHT22;5599;52.210;21.046;2023-02-05T09:51:33;0.20;99.90
11091;DHT22;5599;52.210;21.046;2023-02-05T09:54:17;-0.10;1.00
11091;DHT22;5599;52.210;21.046;2023-02-05T09:56:52;-0.20;1.00
11091;DHT22;5599;52.210;21.046;2023-02-05T09:59:25;-0.30;1.00
11091;DHT22;5599;52.210;21.046;2023-02-05T10:01:57;-0.30;1.00
11091;DHT22;5599;52.210;21.046;2023-02-05T10:04:29;-0.20;1.00
11091;DHT22;5599;52.210;21.046;2023-02-05T10:07:15;-0.40;99.90
11091;DHT22;5599;52.210;21.046;2023-02-05T10:10:12;-0.40;99.90
11091;DHT22;5599;52.210;21.046;2023-02-05T10:13:06;-0.40;99.90
11091;DHT22;5599;52.210;21.046;2023-02-05T10:15:52;-0.40;99.90
11091;DHT22;5599;52.210;21.046;2023-02-05T10:18:32;-0.50;99.90
11091;DHT22;5599;52.210;21.046;2023-02-05T10:21:20;-0.40;99.90
11091;DHT22;5599;52.210;21.046;2023-02-05T10:24:01;-0.40;99.90
11091;DHT22;5599;52.210;21.046;2023-02-05T10:26:38;-0.50;99.90
11091;DHT22;5599;52.210;21.046;2023-02-05T10:29:32;-0.50;1.00
11091;DHT22;5599;52.210;21.046;2023-02-05T10:32:18;-0.40;1.00
11091;DHT22;5599;52.210;21.046;2023-02-05T10:34:56;-0.50;1.00
11091;DHT22;5599;52.210;21.046;2023-02-05T10:37:37;-0.40;1.00
11091;DHT22;5599;52.210;21.046;2023-02-05T10:40:14;-0.30;1.00
11091;DHT22;5599;52.210;21.046;2023-02-05T10:42:48;-0.30;1.00
11091;DHT22;5599;52.210;21.046;2023-02-05T10:45:21;-0.40;1.00
11091;DHT22;5599;52.210;21.046;2023-02-05T10:48:11;-0.50;1.00
11091;DHT22;5599;52.210;21.046;2023-02-05T10:50:48;-0.60;1.00
11091;DHT22;5599;52.210;21.046;2023-02-05T10:53:23;-0.60;1.00
11091;DHT22;5599;52.210;21.046;2023-02-05T10:55:53;-0.60;1.00
11091;DHT22;5599;52.210;21.046;2023-02-05T10:58:38;-0.50;1.00
11091;DHT22;5599;52.210;21.046;2023-02-05T11:01:12;-0.20;1.00
11091;DHT22;5599;52.210;21.046;2023-02-05T11:03:52;-0.20;1.00
11091;DHT22;5599;52.210;21.046;2023-02-05T11:06:25;-0.10;1.00
11091;DHT22;5599;52.210;21.046;2023-02-05T11:08:57;-0.10;1.00
11091;DHT22;5599;52.210;21.046;2023-02-05T11:11:28;0.00;1.00
11091;DHT22;5599;52.210;21.046;2023-02-05T11:13:59;0.00;1.00
11091;DHT22;5599;52.210;21.046;2023-02-05T11:16:37;0.10;1.00
11091;DHT22;5599;52.210;21.046;2023-02-05T11:19:17;0.00;1.00
11091;DHT22;5599;52.210;21.046;2023-02-05T11:21:50;0.10;1.00
11091;DHT22;5599;52.210;21.046;2023-02-05T11:24:28;0.20;1.00
11091;DHT22;5599;52.210;21.046;2023-02-05T11:30:24;0.40;1.00
11091;DHT22;5599;52.210;21.046;2023-02-05T11:33:24;0.50;1.00
11091;DHT22;5599;52.210;21.046;2023-02-05T11:36:00;0.30;1.00
11091;DHT22;5599;52.210;21.046;2023-02-05T11:38:41;0.20;1.00
11091;DHT22;5599;52.210;21.046;2023-02-05T11:41:25;0.20;1.00
11091;DHT22;5599;52.210;21.046;2023-02-05T11:43:57;0.30;1.00
11091;DHT22;5599;52.210;21.046;2023-02-05T11:46:34;0.30;11.80
11091;DHT22;5599;52.210;21.046;2023-02-05T11:49:19;0.30;1.00
11091;DHT22;5599;52.210;21.046;2023-02-05T11:51:51;0.40;1.00
11091;DHT22;5599;52.210;21.046;2023-02-05T11:54:24;0.40;1.00
11091;DHT22;5599;52.210;21.046;2023-02-05T11:57:07;0.50;1.00
11091;DHT22;5599;52.210;21.046;2023-02-05T11:59:55;0.50;1.00
11091;DHT22;5599;52.210;21.046;2023-02-05T12:02:31;0.60;1.00
11091;DHT22;5599;52.210;21.046;2023-02-05T12:05:16;0.70;1.00
11091;DHT22;5599;52.210;21.046;2023-02-05T12:07:49;0.60;1.00
11091;DHT22;5599;52.210;21.046;2023-02-05T12:10:28;0.60;1.00
11091;DHT22;5599;52.210;21.046;2023-02-05T12:13:08;0.60;1.00
11091;DHT22;5599;52.210;21.046;2023-02-05T12:15:44;0.60;1.00
11091;DHT22;5599;52.210;21.046;2023-02-05T12:18:29;0.50;1.00
11091;DHT22;5599;52.210;21.046;2023-02-05T12:21:13;0.60;1.00
11091;DHT22;5599;52.210;21.046;2023-02-05T12:24:17;0.60;1.00
11091;DHT22;5599;52.210;21.046;2023-02-05T12:27:00;0.50;99.90
11091;DHT22;5599;52.210;21.046;2023-02-05T12:29:50;0.60;99.90
11091;DHT22;5599;52.210;21.046;2023-02-05T12:32:30;0.50;99.90
11091;DHT22;5599;52.210;21.046;2023-02-05T12:35:16;0.60;1.00
11091;DHT22;5599;52.210;21.046;2023-02-05T12:37:53;0.70;1.00
11091;DHT22;5599;52.210;21.046;2023-02-05T12:40:38;0.90;99.90
11091;DHT22;5599;52.210;21.046;2023-02-05T12:43:24;0.60;99.90
11091;DHT22;5599;52.210;21.046;2023-02-05T12:46:04;0.60;99.90
11091;DHT22;5599;52.210;21.046;2023-02-05T12:48:55;0.60;99.90
11091;DHT22;5599;52.210;21.046;2023-02-05T12:51:38;0.70;99.90
11091;DHT22;5599;52.210;21.046;2023-02-05T12:54:29;0.60;99.90
11091;DHT22;5599;52.210;21.046;2023-02-05T12:57:05;0.50;99.90
11091;DHT22;5599;52.210;21.046;2023-02-05T12:59:40;0.50;99.90
11091;DHT22;5599;52.210;21.046;2023-02-05T13:02:21;0.60;99.90
11091;DHT22;5599;52.210;21.046;2023-02-05T13:05:07;0.70;99.90
11091;DHT22;5599;52.210;21.046;2023-02-05T13:07:43;0.80;99.90
11091;DHT22;5599;52.210;21.046;2023-02-05T13:10:16;0.70;99.90
11091;DHT22;5599;52.210;21.046;2023-02-05T13:12:51;0.90;99.90
11091;DHT22;5599;52.210;21.046;2023-02-05T13:15:26;0.80;99.90
11091;DHT22;5599;52.210;21.046;2023-02-05T13:18:03;0.70;99.90
11091;DHT22;5599;52.210;21.046;2023-02-05T13:20:38;0.60;99.90
11091;DHT22;5599;52.210;21.046;2023-02-05T13:23:27;0.60;99.90
11091;DHT22;5599;52.210;21.046;2023-02-05T13:26:17;0.50;99.90
11091;DHT22;5599;52.210;21.046;2023-02-05T13:29:08;0.60;99.90
11091;DHT22;5599;52.210;21.046;2023-02-05T13:31:42;0.50;99.90
11091;DHT22;5599;52.210;21.046;2023-02-05T13:34:17;0.30;99.90
11091;DHT22;5599;52.210;21.046;2023-02-05T13:43:21;0.10;99.90
11091;DHT22;5599;52.210;21.046;2023-02-05T13:49:13;0.10;99.90
11091;DHT22;5599;52.210;21.046;2023-02-05T14:00:58;0.10;99.90
11091;DHT22;5599;52.210;21.046;2023-02-05T14:03:33;0.10;99.90
11091;DHT22;5599;52.210;21.046;2023-02-05T14:06:20;0.10;99.90
11091;DHT22;5599;52.210;21.046;2023-02-05T14:08:59;0.10;99.90
11091;DHT22;5599;52.210;21.046;2023-02-05T14:11:50;0.10;99.90
11091;DHT22;5599;52.210;21.046;2023-02-05T14:14:26;0.30;99.90
11091;DHT22;5599;52.210;21.046;2023-02-05T14:16:58;0.30;99.90
11091;DHT22;5599;52.210;21.046;2023-02-05T14:19:50;0.20;99.90
11091;DHT22;5599;52.210;21.046;2023-02-05T14:22:39;0.10;99.90
11091;DHT22;5599;52.210;21.046;2023-02-05T14:28:48;0.10;99.90
11091;DHT22;5599;52.210;21.046;2023-02-05T14:34:46;0.00;99.90
11091;DHT22;5599;52.210;21.046;2023-02-05T14:37:35;0.00;99.90
11091;DHT22;5599;52.210;21.046;2023-02-05T14:40:25;0.00;99.90
11091;DHT22;5599;52.210;21.046;2023-02-05T14:43:00;0.00;99.90
11091;DHT22;5599;52.210;21.046;2023-02-05T14:45:47;-0.10;99.90
11091;DHT22;5599;52.210;21.046;2023-02-05T14:48:21;-0.10;99.90
11091;DHT22;5599;52.210;21.046;2023-02-05T14:51:04;-0.10;99.90
11091;DHT22;5599;52.210;21.046;2023-02-05T14:53:38;0.00;99.90
11091;DHT22;5599;52.210;21.046;2023-02-05T14:56:23;0.10;99.90
11091;DHT22;5599;52.210;21.046;2023-02-05T14:59:02;0.10;99.90
11091;DHT22;5599;52.210;21.046;2023-02-05T15:01:44;0.00;99.90
11091;DHT22;5599;52.210;21.046;2023-02-05T15:07:14;0.10;99.90
11091;DHT22;5599;52.210;21.046;2023-02-05T15:09:51;0.20;1.00
11091;DHT22;5599;52.210;21.046;2023-02-05T15:12:58;0.20;99.90
11091;DHT22;5599;52.210;21.046;2023-02-05T15:15:32;0.20;99.90
11091;DHT22;5599;52.210;21.046;2023-02-05T15:18:14;0.20;99.90
11091;DHT22;5599;52.210;21.046;2023-02-05T15:20:47;0.20;99.90
11091;DHT22;5599;52.210;21.046;2023-02-05T15:23:24;0.20;99.90
11091;DHT22;5599;52.210;21.046;2023-02-05T15:26:01;0.00;99.90
11091;DHT22;5599;52.210;21.046;2023-02-05T15:28:36;0.00;99.90
11091;DHT22;5599;52.210;21.046;2023-02-05T15:31:23;0.00;99.90
11091;DHT22;5599;52.210;21.046;2023-02-05T15:34:14;0.00;99.90
11091;DHT22;5599;52.210;21.046;2023-02-05T15:36:53;0.00;99.90
11091;DHT22;5599;52.210;21.046;2023-02-05T15:39:29;0.10;99.90
11091;DHT22;5599;52.210;21.046;2023-02-05T15:42:05;0.10;99.90
11091;DHT22;5599;52.210;21.046;2023-02-05T15:44:36;-0.10;99.90
11091;DHT22;5599;52.210;21.046;2023-02-05T15:47:12;-0.20;99.90
11091;DHT22;5599;52.210;21.046;2023-02-05T15:49:49;-0.20;99.90
11091;DHT22;5599;52.210;21.046;2023-02-05T15:52:23;-0.10;99.90
11091;DHT22;5599;52.210;21.046;2023-02-05T15:54:56;-0.10;99.90
11091;DHT22;5599;52.210;21.046;2023-02-05T15:57:30;0.00;99.90
11091;DHT22;5599;52.210;21.046;2023-02-05T16:00:07;0.10;99.90
11091;DHT22;5599;52.210;21.046;2023-02-05T16:02:52;0.10;99.90
11091;DHT22;5599;52.210;21.046;2023-02-05T16:05:27;0.10;99.90
11091;DHT22;5599;52.210;21.046;2023-02-05T16:07:58;0.10;99.90
11091;DHT22;5599;52.210;21.046;2023-02-05T16:10:31;0.10;99.90
11091;DHT22;5599;52.210;21.046;2023-02-05T16:13:05;0.20;99.90
11091;DHT22;5599;52.210;21.046;2023-02-05T16:15:40;0.10;99.90
11091;DHT22;5599;52.210;21.046;2023-02-05T16:18:17;0.20;99.90
11091;DHT22;5599;52.210;21.046;2023-02-05T16:20:54;0.10;99.90
11091;DHT22;5599;52.210;21.046;2023-02-05T16:23:30;-0.10;99.90
11091;DHT22;5599;52.210;21.046;2023-02-05T16:26:09;0.00;99.90
11091;DHT22;5599;52.210;21.046;2023-02-05T16:28:44;0.10;99.90
11091;DHT22;5599;52.210;21.046;2023-02-05T16:31:17;0.20;99.90
11091;DHT22;5599;52.210;21.046;2023-02-05T16:33:51;0.20;99.90
11091;DHT22;5599;52.210;21.046;2023-02-05T16:36:29;0.20;99.90
11091;DHT22;5599;52.210;21.046;2023-02-05T16:39:04;0.20;99.90
11091;DHT22;5599;52.210;21.046;2023-02-05T16:41:37;0.20;99.90
11091;DHT22;5599;52.210;21.046;2023-02-05T16:44:26;0.20;99.90
11091;DHT22;5599;52.210;21.046;2023-02-05T16:47:13;0.30;99.90
11091;DHT22;5599;52.210;21.046;2023-02-05T16:49:46;0.30;99.90
11091;DHT22;5599;52.210;21.046;2023-02-05T16:52:32;0.30;99.90
11091;DHT22;5599;52.210;21.046;2023-02-05T16:58:03;0.30;99.90
11091;DHT22;5599;52.210;21.046;2023-02-05T17:00:35;0.40;99.90
11091;DHT22;5599;52.210;21.046;2023-02-05T17:03:13;0.30;99.90
11091;DHT22;5599;52.210;21.046;2023-02-05T17:05:53;0.30;99.90